Darstellungsparameter: Aktuell verwendete Einstellungen:
Skalierung der Graphiken ... ?
xyx+y,   Skalierungsfaktor:      Skalierung: Modus: x, Faktor: 1
Darstellungszeitraum ... ?
Vom - - bis: - -   Zeitraum: 31.07.2016 - 31.07.2016
Min/Max/Avg-Anzeige ... ?
Zeige MMA aktuell
Zeige MMA Monat
Zeige MMA alles
Zeige --A aktuell
Zeige --A Monat
Zeige --A alles
Keine MMA-Anzeige
MMA:
Keine MMA-Graphiken
MMA-Basis: 31.07.2016 - 31.07.2016
Quicknavigation für Darstellung... ?
Tage:      1T, 2T, 3T, 5T -1T -2T -3T -5T +1T +2T +3T +5T
Wochen: 1W, 2W, 3W -1W -2W -3W +1W +2W +3W
Monate: 1M, 3M, 6M -1M -3M -6M +1M +3M +6M
Jahre:    1J, 3J, 5J, 10J -1J -3J -5J -10J +1J +3J +5J +10J
Nutze für die Darstellung ... ?
Originaldaten oder Mittelwerte auf ...
Stundenbasis Tagesbasis Wochenbasis
Monatsbasis Jahresbasis      Datenbasis: Original-Daten
Darstellen als:
Statistik (Auto) Statistik J:M      Darstellung:
Zur Graphik,    zurück zur Übersicht aller Sensoren.
 
Tabellarische Datenbersicht: ?
 
Sensor: Nr:Datum:Temp:Feuchte:Taupunkt:
Aussen-T/F 1 31-07-2016 00:00:00 17.7 C 87 % 15.51 C
2 31-07-2016 00:05:00 17.7 C 87 % 15.51 C
3 31-07-2016 00:10:00 17.7 C 87 % 15.51 C
4 31-07-2016 00:15:00 17.6 C 88 % 15.59 C
5 31-07-2016 00:20:00 17.5 C 88 % 15.49 C
6 31-07-2016 00:25:00 17.4 C 88 % 15.39 C
7 31-07-2016 00:30:00 17.4 C 89 % 15.57 C
8 31-07-2016 00:35:00 17.3 C 89 % 15.47 C
9 31-07-2016 00:40:00 17.3 C 89 % 15.47 C
10 31-07-2016 00:45:00 17.2 C 89 % 15.37 C
11 31-07-2016 00:50:00 17.2 C 89 % 15.37 C
12 31-07-2016 00:55:00 17.1 C 89 % 15.27 C
13 31-07-2016 01:00:00 17.1 C 89 % 15.27 C
14 31-07-2016 01:05:00 16.9 C 89 % 15.08 C
15 31-07-2016 01:10:00 16.8 C 89 % 14.98 C
16 31-07-2016 01:15:00 16.8 C 89 % 14.98 C
17 31-07-2016 01:20:00 16.7 C 89 % 14.88 C
18 31-07-2016 01:25:00 16.6 C 90 % 14.95 C
19 31-07-2016 01:30:00 16.4 C 90 % 14.76 C
20 31-07-2016 01:35:00 16.4 C 90 % 14.76 C
21 31-07-2016 01:40:00 16.4 C 91 % 14.93 C
22 31-07-2016 01:45:00 16.4 C 91 % 14.93 C
23 31-07-2016 01:50:00 16.4 C 91 % 14.93 C
24 31-07-2016 01:55:00 16.3 C 91 % 14.83 C
25 31-07-2016 02:00:00 16.3 C 91 % 14.83 C
Sensor: Nr:Datum:Temp:Feuchte:Taupunkt:
Aussen-T/F 26 31-07-2016 02:05:00 16.4 C 92 % 15.1 C
27 31-07-2016 02:10:00 16.4 C 92 % 15.1 C
28 31-07-2016 02:15:00 16.4 C 92 % 15.1 C
29 31-07-2016 02:20:00 16.4 C 92 % 15.1 C
30 31-07-2016 02:25:00 16.5 C 92 % 15.2 C
31 31-07-2016 02:30:00 16.4 C 92 % 15.1 C
32 31-07-2016 02:35:00 16.4 C 92 % 15.1 C
33 31-07-2016 02:40:00 16.4 C 92 % 15.1 C
34 31-07-2016 02:45:00 16.3 C 92 % 15 C
35 31-07-2016 02:50:00 16.3 C 92 % 15 C
36 31-07-2016 02:55:00 16.3 C 92 % 15 C
37 31-07-2016 03:00:00 16.3 C 92 % 15 C
38 31-07-2016 03:05:00 16.3 C 92 % 15 C
39 31-07-2016 03:10:00 16.2 C 92 % 14.9 C
40 31-07-2016 03:15:00 16.1 C 92 % 14.8 C
41 31-07-2016 03:20:00 16.1 C 92 % 14.8 C
42 31-07-2016 03:25:00 16 C 92 % 14.7 C
43 31-07-2016 03:30:00 16 C 92 % 14.7 C
44 31-07-2016 03:35:00 16 C 92 % 14.7 C
45 31-07-2016 03:40:00 16 C 92 % 14.7 C
46 31-07-2016 03:45:00 16 C 92 % 14.7 C
47 31-07-2016 03:50:00 16 C 92 % 14.7 C
48 31-07-2016 03:55:00 16 C 93 % 14.87 C
49 31-07-2016 04:00:00 16 C 92 % 14.7 C
50 31-07-2016 04:05:00 15.9 C 92 % 14.6 C
Sensor: Nr:Datum:Temp:Feuchte:Taupunkt:
Aussen-T/F 51 31-07-2016 04:10:00 15.9 C 92 % 14.6 C
52 31-07-2016 04:15:00 15.9 C 93 % 14.77 C
53 31-07-2016 04:20:00 15.9 C 93 % 14.77 C
54 31-07-2016 04:25:00 15.9 C 93 % 14.77 C
55 31-07-2016 04:30:00 15.9 C 93 % 14.77 C
56 31-07-2016 04:35:00 15.9 C 93 % 14.77 C
57 31-07-2016 04:40:00 15.9 C 93 % 14.77 C
58 31-07-2016 04:45:00 15.9 C 93 % 14.77 C
59 31-07-2016 04:50:00 15.8 C 93 % 14.67 C
60 31-07-2016 04:55:00 15.9 C 93 % 14.77 C
61 31-07-2016 05:00:00 15.9 C 93 % 14.77 C
62 31-07-2016 05:05:00 15.9 C 93 % 14.77 C
63 31-07-2016 05:10:00 15.9 C 93 % 14.77 C
64 31-07-2016 05:15:00 15.9 C 93 % 14.77 C
65 31-07-2016 05:20:00 15.8 C 93 % 14.67 C
66 31-07-2016 05:25:00 15.8 C 93 % 14.67 C
67 31-07-2016 05:30:00 15.8 C 93 % 14.67 C
68 31-07-2016 05:35:00 15.7 C 93 % 14.57 C
69 31-07-2016 05:40:00 15.7 C 93 % 14.57 C
70 31-07-2016 05:45:00 15.7 C 93 % 14.57 C
71 31-07-2016 05:50:00 15.6 C 93 % 14.47 C
72 31-07-2016 05:55:00 15.6 C 93 % 14.47 C
73 31-07-2016 06:00:00 15.6 C 93 % 14.47 C
74 31-07-2016 06:05:00 15.6 C 93 % 14.47 C
75 31-07-2016 06:10:00 15.6 C 94 % 14.64 C
Sensor: Nr:Datum:Temp:Feuchte:Taupunkt:
Aussen-T/F 76 31-07-2016 06:15:00 15.6 C 94 % 14.64 C
77 31-07-2016 06:20:00 15.6 C 94 % 14.64 C
78 31-07-2016 06:25:00 15.6 C 94 % 14.64 C
79 31-07-2016 06:30:00 15.7 C 94 % 14.74 C
80 31-07-2016 06:35:00 15.7 C 94 % 14.74 C
81 31-07-2016 06:40:00 15.7 C 94 % 14.74 C
82 31-07-2016 06:45:00 15.8 C 94 % 14.84 C
83 31-07-2016 06:50:00 15.8 C 94 % 14.84 C
84 31-07-2016 06:55:00 15.9 C 94 % 14.94 C
85 31-07-2016 07:00:00 15.9 C 94 % 14.94 C
86 31-07-2016 07:05:00 16 C 94 % 15.03 C
87 31-07-2016 07:10:00 16.1 C 94 % 15.13 C
88 31-07-2016 07:15:00 16.1 C 94 % 15.13 C
89 31-07-2016 07:20:00 16.1 C 94 % 15.13 C
90 31-07-2016 07:25:00 16.2 C 94 % 15.23 C
91 31-07-2016 07:30:00 16.3 C 94 % 15.33 C
92 31-07-2016 07:35:00 16.4 C 94 % 15.43 C
93 31-07-2016 07:40:00 16.5 C 93 % 15.36 C
94 31-07-2016 07:45:00 16.6 C 93 % 15.46 C
95 31-07-2016 07:50:00 16.7 C 93 % 15.56 C
96 31-07-2016 07:55:00 16.7 C 93 % 15.56 C
97 31-07-2016 08:00:00 16.8 C 92 % 15.49 C
98 31-07-2016 08:05:00 16.9 C 92 % 15.59 C
99 31-07-2016 08:10:00 16.9 C 91 % 15.42 C
100 31-07-2016 08:15:00 17.1 C 91 % 15.62 C
Sensor: Nr:Datum:Temp:Feuchte:Taupunkt:
Aussen-T/F 101 31-07-2016 08:20:00 17.2 C 91 % 15.72 C
102 31-07-2016 08:25:00 17.3 C 91 % 15.82 C
103 31-07-2016 08:30:00 17.4 C 91 % 15.92 C
104 31-07-2016 08:35:00 17.5 C 90 % 15.84 C
105 31-07-2016 08:40:00 17.6 C 91 % 16.11 C
106 31-07-2016 08:45:00 17.8 C 89 % 15.96 C
107 31-07-2016 08:50:00 17.9 C 88 % 15.88 C
108 31-07-2016 08:55:00 18.1 C 86 % 15.72 C
109 31-07-2016 09:00:00 18.3 C 84 % 15.55 C
110 31-07-2016 09:05:00 18.4 C 84 % 15.65 C
111 31-07-2016 09:10:00 18.6 C 84 % 15.84 C
112 31-07-2016 09:15:00 18.7 C 83 % 15.75 C
113 31-07-2016 09:20:00 18.9 C 84 % 16.14 C
114 31-07-2016 09:25:00 19 C 82 % 15.86 C
115 31-07-2016 09:30:00 19.2 C 82 % 16.05 C
116 31-07-2016 09:35:00 19.2 C 81 % 15.86 C
117 31-07-2016 09:40:00 19.4 C 80 % 15.86 C
118 31-07-2016 09:45:00 19.5 C 80 % 15.96 C
119 31-07-2016 09:50:00 19.6 C 80 % 16.06 C
120 31-07-2016 09:55:00 19.7 C 79 % 15.96 C
121 31-07-2016 10:00:00 19.7 C 80 % 16.15 C
122 31-07-2016 10:05:00 19.5 C 79 % 15.76 C
123 31-07-2016 10:10:00 19.4 C 79 % 15.66 C
124 31-07-2016 10:15:00 19.3 C 80 % 15.76 C
125 31-07-2016 10:20:00 19.3 C 80 % 15.76 C
Sensor: Nr:Datum:Temp:Feuchte:Taupunkt:
Aussen-T/F 126 31-07-2016 10:25:00 19.3 C 80 % 15.76 C
127 31-07-2016 10:30:00 19.4 C 80 % 15.86 C
128 31-07-2016 10:35:00 19.4 C 80 % 15.86 C
129 31-07-2016 10:40:00 19.4 C 80 % 15.86 C
130 31-07-2016 10:45:00 19.6 C 79 % 15.86 C
131 31-07-2016 10:50:00 19.8 C 78 % 15.85 C
132 31-07-2016 10:55:00 19.9 C 80 % 16.35 C
133 31-07-2016 11:00:00 19.9 C 76 % 15.54 C
134 31-07-2016 11:05:00 19.9 C 76 % 15.54 C
135 31-07-2016 11:10:00 19.8 C 76 % 15.45 C
136 31-07-2016 11:15:00 19.8 C 76 % 15.45 C
137 31-07-2016 11:20:00 19.7 C 77 % 15.56 C
138 31-07-2016 11:25:00 19.7 C 77 % 15.56 C
139 31-07-2016 11:30:00 19.7 C 77 % 15.56 C
140 31-07-2016 11:35:00 19.8 C 77 % 15.65 C
141 31-07-2016 11:40:00 19.9 C 77 % 15.75 C
142 31-07-2016 11:45:00 20 C 76 % 15.64 C
143 31-07-2016 11:50:00 20.2 C 77 % 16.04 C
144 31-07-2016 11:55:00 20.2 C 75 % 15.63 C
145 31-07-2016 12:00:00 20.3 C 75 % 15.72 C
146 31-07-2016 12:05:00 20.4 C 75 % 15.82 C
147 31-07-2016 12:10:00 20.6 C 74 % 15.8 C
148 31-07-2016 12:15:00 20.7 C 73 % 15.69 C
149 31-07-2016 12:20:00 20.8 C 73 % 15.78 C
150 31-07-2016 12:25:00 20.8 C 72 % 15.57 C
Sensor: Nr:Datum:Temp:Feuchte:Taupunkt:
Aussen-T/F 151 31-07-2016 12:30:00 20.9 C 73 % 15.88 C
152 31-07-2016 12:35:00 20.8 C 72 % 15.57 C
153 31-07-2016 12:40:00 20.7 C 72 % 15.47 C
154 31-07-2016 12:45:00 20.7 C 73 % 15.69 C
155 31-07-2016 12:50:00 20.7 C 72 % 15.47 C
156 31-07-2016 12:55:00 20.8 C 72 % 15.57 C
157 31-07-2016 13:00:00 20.8 C 72 % 15.57 C
158 31-07-2016 13:05:00 20.9 C 72 % 15.66 C
159 31-07-2016 13:10:00 21 C 72 % 15.76 C
160 31-07-2016 13:15:00 21.1 C 71 % 15.64 C
161 31-07-2016 13:20:00 21.1 C 72 % 15.86 C
162 31-07-2016 13:25:00 21.3 C 70 % 15.61 C
163 31-07-2016 13:30:00 21.3 C 69 % 15.38 C
164 31-07-2016 13:35:00 21.3 C 69 % 15.38 C
165 31-07-2016 13:40:00 21.3 C 69 % 15.38 C
166 31-07-2016 13:45:00 21.3 C 69 % 15.38 C
167 31-07-2016 13:50:00 21.4 C 70 % 15.7 C
168 31-07-2016 13:55:00 21.6 C 68 % 15.44 C
169 31-07-2016 14:00:00 21.7 C 67 % 15.31 C
170 31-07-2016 14:05:00 21.8 C 67 % 15.4 C
171 31-07-2016 14:10:00 21.8 C 67 % 15.4 C
172 31-07-2016 14:15:00 21.9 C 66 % 15.26 C
173 31-07-2016 14:20:00 22.1 C 66 % 15.45 C
174 31-07-2016 14:25:00 22.1 C 65 % 15.21 C
175 31-07-2016 14:30:00 21.9 C 65 % 15.02 C
Sensor: Nr:Datum:Temp:Feuchte:Taupunkt:
Aussen-T/F 176 31-07-2016 14:35:00 21.6 C 66 % 14.98 C
177 31-07-2016 14:40:00 20.7 C 67 % 14.36 C
178 31-07-2016 14:45:00 20 C 71 % 14.58 C
179 31-07-2016 14:50:00 19.5 C 74 % 14.74 C
180 31-07-2016 14:55:00 19.2 C 77 % 15.07 C
181 31-07-2016 15:00:00 19 C 79 % 15.28 C
182 31-07-2016 15:05:00 18.7 C 81 % 15.37 C
183 31-07-2016 15:10:00 18.4 C 84 % 15.65 C
184 31-07-2016 15:15:00 18.2 C 84 % 15.45 C
185 31-07-2016 15:20:00 18.1 C 87 % 15.9 C
186 31-07-2016 15:25:00 18.1 C 85 % 15.54 C
187 31-07-2016 15:30:00 18.2 C 84 % 15.45 C
188 31-07-2016 15:35:00 18.4 C 83 % 15.46 C
189 31-07-2016 15:40:00 18.5 C 79 % 14.79 C
190 31-07-2016 15:45:00 18.6 C 75 % 14.08 C
191 31-07-2016 15:50:00 18.5 C 73 % 13.57 C
192 31-07-2016 15:55:00 18.5 C 76 % 14.19 C
193 31-07-2016 16:00:00 18.5 C 74 % 13.78 C
194 31-07-2016 16:05:00 18.5 C 73 % 13.57 C
195 31-07-2016 16:10:00 18.5 C 74 % 13.78 C
196 31-07-2016 16:15:00 18.6 C 72 % 13.46 C
197 31-07-2016 16:20:00 18.8 C 74 % 14.07 C
198 31-07-2016 16:25:00 19.3 C 73 % 14.34 C
199 31-07-2016 16:30:00 20.1 C 72 % 14.9 C
200 31-07-2016 16:35:00 20.6 C 68 % 14.49 C
Sensor: Nr:Datum:Temp:Feuchte:Taupunkt:
Aussen-T/F 201 31-07-2016 16:40:00 20.8 C 66 % 14.22 C
202 31-07-2016 16:45:00 20.7 C 65 % 13.89 C
203 31-07-2016 16:50:00 20.6 C 65 % 13.79 C
204 31-07-2016 16:55:00 20.3 C 64 % 13.27 C
205 31-07-2016 17:00:00 20.1 C 65 % 13.32 C
206 31-07-2016 17:05:00 19.9 C 63 % 12.65 C
207 31-07-2016 17:10:00 19.7 C 65 % 12.94 C
208 31-07-2016 17:15:00 19.6 C 69 % 13.76 C
209 31-07-2016 17:20:00 19.4 C 69 % 13.57 C
210 31-07-2016 17:25:00 19.3 C 68 % 13.25 C
211 31-07-2016 17:30:00 19.3 C 67 % 13.02 C
212 31-07-2016 17:35:00 19.3 C 72 % 14.13 C
213 31-07-2016 17:40:00 19.5 C 71 % 14.1 C
214 31-07-2016 17:45:00 19.9 C 69 % 14.05 C
215 31-07-2016 17:50:00 20.6 C 66 % 14.03 C
216 31-07-2016 17:55:00 21.2 C 64 % 14.12 C
217 31-07-2016 18:00:00 21.5 C 62 % 13.92 C
218 31-07-2016 18:05:00 21.8 C 60 % 13.69 C
219 31-07-2016 18:10:00 22.3 C 61 % 14.42 C
220 31-07-2016 18:15:00 22.3 C 60 % 14.16 C
221 31-07-2016 18:20:00 22.4 C 61 % 14.51 C
222 31-07-2016 18:25:00 22.3 C 60 % 14.16 C
223 31-07-2016 18:30:00 22.2 C 60 % 14.07 C
224 31-07-2016 18:35:00 21.7 C 62 % 14.1 C
225 31-07-2016 18:40:00 21.2 C 64 % 14.12 C
Sensor: Nr:Datum:Temp:Feuchte:Taupunkt:
Aussen-T/F 226 31-07-2016 18:45:00 21.1 C 65 % 14.27 C
227 31-07-2016 18:50:00 21.3 C 64 % 14.22 C
228 31-07-2016 18:55:00 21.5 C 62 % 13.92 C
229 31-07-2016 19:00:00 21.3 C 63 % 13.97 C
230 31-07-2016 19:05:00 21.3 C 62 % 13.73 C
231 31-07-2016 19:10:00 21.2 C 61 % 13.38 C
232 31-07-2016 19:15:00 20.9 C 61 % 13.1 C
233 31-07-2016 19:20:00 20.7 C 60 % 12.66 C
234 31-07-2016 19:25:00 20.4 C 61 % 12.63 C
235 31-07-2016 19:30:00 20.4 C 63 % 13.12 C
236 31-07-2016 19:35:00 20.3 C 62 % 12.79 C
237 31-07-2016 19:40:00 20.2 C 63 % 12.94 C
238 31-07-2016 19:45:00 20 C 62 % 12.5 C
239 31-07-2016 19:50:00 19.8 C 65 % 13.03 C
240 31-07-2016 19:55:00 19.8 C 65 % 13.03 C
241 31-07-2016 20:00:00 19.7 C 65 % 12.94 C
242 31-07-2016 20:05:00 19.7 C 66 % 13.17 C
243 31-07-2016 20:10:00 19.6 C 66 % 13.08 C
244 31-07-2016 20:15:00 19.6 C 67 % 13.31 C
245 31-07-2016 20:20:00 19.4 C 67 % 13.12 C
246 31-07-2016 20:25:00 19.3 C 68 % 13.25 C
247 31-07-2016 20:30:00 19.2 C 68 % 13.15 C
248 31-07-2016 20:35:00 19.1 C 69 % 13.28 C
249 31-07-2016 20:40:00 19.1 C 69 % 13.28 C
250 31-07-2016 20:45:00 18.9 C 69 % 13.09 C
Sensor: Nr:Datum:Temp:Feuchte:Taupunkt:
Aussen-T/F 251 31-07-2016 20:50:00 18.8 C 70 % 13.22 C
252 31-07-2016 20:55:00 18.7 C 72 % 13.55 C
253 31-07-2016 21:00:00 18.4 C 74 % 13.68 C
254 31-07-2016 21:05:00 18 C 75 % 13.51 C
255 31-07-2016 21:10:00 17.6 C 77 % 13.52 C
256 31-07-2016 21:15:00 17.2 C 78 % 13.33 C
257 31-07-2016 21:20:00 16.9 C 79 % 13.24 C
258 31-07-2016 21:25:00 16.6 C 80 % 13.14 C
259 31-07-2016 21:30:00 16.4 C 81 % 13.13 C
260 31-07-2016 21:35:00 16.3 C 81 % 13.04 C
261 31-07-2016 21:40:00 16.2 C 82 % 13.13 C
262 31-07-2016 21:45:00 16.1 C 82 % 13.03 C
263 31-07-2016 21:50:00 16 C 83 % 13.12 C
264 31-07-2016 21:55:00 15.8 C 83 % 12.92 C
265 31-07-2016 22:00:00 15.8 C 83 % 12.92 C
266 31-07-2016 22:05:00 15.7 C 84 % 13.01 C
267 31-07-2016 22:10:00 15.7 C 84 % 13.01 C
268 31-07-2016 22:15:00 15.7 C 84 % 13.01 C
269 31-07-2016 22:20:00 15.7 C 85 % 13.19 C
270 31-07-2016 22:25:00 15.7 C 85 % 13.19 C
271 31-07-2016 22:30:00 15.7 C 86 % 13.37 C
272 31-07-2016 22:35:00 15.7 C 86 % 13.37 C
273 31-07-2016 22:40:00 15.7 C 86 % 13.37 C
274 31-07-2016 22:45:00 15.6 C 86 % 13.27 C
275 31-07-2016 22:50:00 15.4 C 86 % 13.07 C
Sensor: Nr:Datum:Temp:Feuchte:Taupunkt:
Aussen-T/F 276 31-07-2016 22:55:00 15.3 C 86 % 12.97 C
277 31-07-2016 23:00:00 15.1 C 86 % 12.78 C
278 31-07-2016 23:05:00 14.9 C 87 % 12.76 C
279 31-07-2016 23:10:00 14.8 C 87 % 12.66 C
280 31-07-2016 23:15:00 14.8 C 88 % 12.83 C
281 31-07-2016 23:20:00 14.7 C 88 % 12.73 C
282 31-07-2016 23:25:00 14.6 C 88 % 12.64 C
283 31-07-2016 23:30:00 14.4 C 88 % 12.44 C
284 31-07-2016 23:35:00 14.4 C 88 % 12.44 C
285 31-07-2016 23:40:00 14.3 C 89 % 12.51 C
286 31-07-2016 23:45:00 14.3 C 89 % 12.51 C
287 31-07-2016 23:50:00 14.3 C 90 % 12.68 C
288 31-07-2016 23:55:00 14.3 C 90 % 12.68 C

Legende:
   Min
   Max


Maximal/Minimal-Werte vom 31.07.2016 - 31.07.2016

Sensor Min Max Avg
Temp
(Aussen-T/F)
14.3 °C
31-07-2016  23:40:00
22.4 °C
31-07-2016  18:20:00
18.14 °C
Feuchte
(Aussen-T/F)
60 %
31-07-2016  18:05:00
94 %
31-07-2016  06:10:00
80.75 %
Taupunkt
(Aussen-T/F)
12.44 C
31-07-2016  23:30:00
16.35 C
31-07-2016  10:55:00
14.58 C

Die Daten stammen von einer Davis Vantage Pro 2 Wetter-Station und werden unter Linux mit der Software wview2wettercgi und aufbereitet. Alle Angaben erfolgen ohne Gewähr für ihre Vollständigkeit oder Richtigkeit.
Kontakt: Rainer Krienke krienke@uni-koblenz.de . Meine Webseiten an der Uni Koblenz oder privat.
Version: $Revision: 0.78 $